| time (UTC) | temp F | wind direction | speed MPH | gust MPH | rain 1hr in | rain 24hr in | rain mn in | humidity % | barometer mb |
| 20260507033032 | 59 | 1 | 0.0 | 0.0 | 0.00 | 1.91 | 1.91 | 94 | 1014.2 |
| 20260507031528 | 59 | 1 | 0.0 | 0.0 | 0.00 | 1.91 | 1.91 | 94 | 1014.0 |
| 20260507030028 | 59 | 1 | 0.0 | 0.0 | 0.00 | 1.91 | 1.91 | 94 | 1014.2 |
| 20260507024545 | 59 | 1 | 0.0 | 4.0 | 0.00 | 1.91 | 1.91 | 94 | 1014.0 |
| 20260507023026 | 59 | 1 | 0.0 | 5.0 | 0.02 | 1.91 | 1.91 | 94 | 1014.2 |
| 20260507021526 | 59 | 1 | 0.0 | 4.0 | 0.10 | 1.91 | 1.91 | 94 | 1014.1 |
| 20260507020027 | 60 | 1 | 0.0 | 2.0 | 0.10 | 1.91 | 1.91 | 94 | 1013.9 |
| 20260507014536 | 60 | 1 | 1.0 | 3.0 | 0.10 | 1.91 | 1.91 | 94 | 1013.9 |
| 20260507013024 | 60 | 1 | 0.0 | 8.0 | 0.10 | 1.89 | 1.89 | 94 | 1014.3 |
| 20260507011536 | 60 | 1 | 3.0 | 5.0 | 0.05 | 1.81 | 1.81 | 94 | 1015.5 |
| 20260507010023 | 60 | 1 | 0.0 | 4.0 | 0.09 | 1.81 | 1.81 | 93 | 1014.6 |
| 20260507004521 | 60 | 1 | 0.0 | 3.0 | 0.11 | 1.81 | 1.81 | 93 | 1014.2 |
| 20260507003022 | 60 | 1 | 2.0 | 4.0 | 0.12 | 1.78 | 1.78 | 94 | 1014.6 |
| 20260507001520 | 61 | 1 | 0.0 | 0.0 | 0.12 | 1.76 | 1.76 | 94 | 1013.6 |
| 20260507000023 | 61 | 1 | 0.0 | 0.0 | 0.09 | 1.72 | 1.72 | 93 | 1013.7 |
| 20260506234519 | 61 | 1 | 1.0 | 4.0 | 0.15 | 1.69 | 1.69 | 94 | 1013.6 |
| 20260506233018 | 61 | 1 | 0.0 | 0.0 | 0.19 | 1.66 | 1.66 | 94 | 1013.4 |
| 20260506231517 | 61 | 1 | 0.0 | 0.0 | 0.18 | 1.64 | 1.64 | 93 | 1013.7 |
| 20260506230017 | 62 | 1 | 0.0 | 0.0 | 0.17 | 1.63 | 1.63 | 93 | 1014.0 |
| 20260506224516 | 62 | 1 | 0.0 | 0.0 | 0.08 | 1.54 | 1.54 | 94 | 1014.1 |
| 20260506223011 | 62 | 1 | 0.0 | 0.0 | 0.01 | 1.46 | 1.46 | 94 | 1013.9 |
| 20260506221509 | 62 | 1 | 0.0 | 0.0 | 0.06 | 1.46 | 1.46 | 94 | 1013.9 |
| 20260506220008 | 62 | 1 | 0.0 | 0.0 | 0.12 | 1.46 | 1.46 | 94 | 1013.6 |
| 20260506214515 | 62 | 1 | 0.0 | 0.0 | 0.19 | 1.46 | 1.46 | 94 | 1013.5 |
| 20260506213008 | 62 | 1 | 0.0 | 0.0 | 0.24 | 1.45 | 1.45 | 93 | 1013.6 |
| 20260506211506 | 62 | 1 | 0.0 | 0.0 | 0.22 | 1.40 | 1.40 | 93 | 1014.0 |
| 20260506210006 | 62 | 1 | 0.0 | 0.0 | 0.19 | 1.33 | 1.33 | 93 | 1014.4 |
| 20260506204505 | 62 | 1 | 0.0 | 4.0 | 0.16 | 1.26 | 1.26 | 91 | 1014.0 |
| 20260506203011 | 63 | 1 | 0.0 | 0.0 | 0.12 | 1.21 | 1.21 | 92 | 1014.5 |
| 20260506201506 | 63 | 1 | 0.0 | 5.0 | 0.09 | 1.18 | 1.18 | 91 | 1014.2 |
| 20260506200010 | 63 | 1 | 1.0 | 3.0 | 0.05 | 1.13 | 1.13 | 90 | 1014.4 |
| 20260506194503 | 64 | 1 | 1.0 | 7.0 | 0.01 | 1.10 | 1.10 | 89 | 1014.6 |
| 20260506193003 | 64 | 1 | 3.0 | 7.0 | 0.00 | 1.09 | 1.09 | 88 | 1014.6 |
| 20260506191502 | 64 | 1 | 1.0 | 9.0 | 0.00 | 1.09 | 1.09 | 89 | 1014.7 |
| 20260506190002 | 64 | 1 | 1.0 | 8.0 | 0.00 | 1.09 | 1.09 | 89 | 1014.6 |
| 20260506184601 | 64 | 1 | 0.0 | 6.0 | 0.00 | 1.09 | 1.09 | 90 | 1014.7 |
| 20260506183107 | 64 | 1 | 1.0 | 12.0 | 0.00 | 1.09 | 1.09 | 89 | 1014.7 |
| 20260506181558 | 63 | 1 | 0.0 | 5.0 | 0.00 | 1.09 | 1.09 | 90 | 1014.6 |
| 20260506180058 | 63 | 1 | 3.0 | 8.0 | 0.00 | 1.09 | 1.09 | 89 | 1014.5 |
| 20260506174606 | 63 | 1 | 0.0 | 4.0 | 0.00 | 1.09 | 1.09 | 91 | 1014.5 |
| 20260506173126 | 63 | 1 | 0.0 | 0.0 | 0.01 | 1.09 | 1.09 | 94 | 1014.1 |
| 20260506171555 | 62 | 1 | 0.0 | 0.0 | 0.01 | 1.09 | 1.09 | 94 | 1014.1 |
| 20260506170054 | 62 | 1 | 1.0 | 4.0 | 0.04 | 1.09 | 1.09 | 94 | 1014.2 |
| 20260506164553 | 61 | 1 | 0.0 | 4.0 | 0.22 | 1.09 | 1.09 | 94 | 1014.8 |
| 20260506163055 | 61 | 1 | 0.0 | 1.0 | 0.44 | 1.08 | 1.08 | 94 | 1015.3 |
| 20260506161558 | 60 | 1 | 0.0 | 3.0 | 0.69 | 1.08 | 1.08 | 93 | 1015.8 |
| 20260506160051 | 60 | 1 | 3.0 | 7.0 | 0.94 | 1.05 | 1.05 | 92 | 1016.5 |
| 20260506154550 | 59 | 1 | 0.0 | 5.0 | 0.79 | 0.86 | 0.86 | 92 | 1016.8 |
| 20260506153047 | 60 | 1 | 0.0 | 2.0 | 0.56 | 0.63 | 0.63 | 92 | 1016.4 |
| 20260506151545 | 59 | 1 | 0.0 | 3.0 | 0.33 | 0.39 | 0.39 | 91 | 1015.6 |
| 20260506150050 | 60 | 1 | 0.0 | 3.0 | 0.05 | 0.11 | 0.11 | 90 | 1015.7 |
| 20260506144558 | 60 | 1 | 0.0 | 6.0 | 0.02 | 0.07 | 0.07 | 89 | 1014.8 |
| 20260506143050 | 61 | 1 | 0.0 | 4.0 | 0.03 | 0.07 | 0.07 | 89 | 1014.5 |
| 20260506141539 | 61 | 1 | 2.0 | 5.0 | 0.02 | 0.06 | 0.06 | 88 | 1014.6 |
| 20260506140055 | 60 | 1 | 0.0 | 3.0 | 0.03 | 0.06 | 0.06 | 89 | 1014.3 |
| 20260506134539 | 60 | 1 | 0.0 | 3.0 | 0.03 | 0.05 | 0.05 | 88 | 1014.2 |
| 20260506133037 | 60 | 1 | 0.0 | 6.0 | 0.04 | 0.04 | 0.04 | 88 | 1013.9 |
| 20260506131543 | 60 | 1 | 0.0 | 0.0 | 0.04 | 0.04 | 0.04 | 88 | 1014.5 |
| 20260506130041 | 61 | 1 | 0.0 | 0.0 | 0.03 | 0.03 | 0.03 | 87 | 1014.6 |
| 20260506124533 | 62 | 1 | 0.0 | 4.0 | 0.02 | 0.02 | 0.02 | 84 | 1014.7 |
| 20260506123037 | 62 | 1 | 0.0 | 1.0 | 0.00 | 0.00 | 0.00 | 83 | 1014.3 |
| 20260506121528 | 62 | 1 | 0.0 | 4.0 | 0.00 | 0.00 | 0.00 | 79 | 1014.1 |
| 20260506120032 | 62 | 1 | 0.0 | 5.0 | 0.00 | 0.00 | 0.00 | 79 | 1014.4 |
| 20260506114526 | 62 | 1 | 0.0 | 6.0 | 0.00 | 0.00 | 0.00 | 78 | 1014.0 |
| 20260506113032 | 62 | 1 | 0.0 | 8.0 | 0.00 | 0.00 | 0.00 | 78 | 1014.1 |
| 20260506111524 | 62 | 1 | 0.0 | 10.0 | 0.00 | 0.00 | 0.00 | 78 | 1014.1 |
| 20260506110032 | 62 | 1 | 0.0 | 6.0 | 0.00 | 0.00 | 0.00 | 77 | 1014.0 |
| 20260506104527 | 62 | 1 | 1.0 | 5.0 | 0.00 | 0.00 | 0.00 | 76 | 1014.0 |
| 20260506103024 | 62 | 1 | 0.0 | 8.0 | 0.00 | 0.00 | 0.00 | 76 | 1013.6 |
| 20260506101520 | 62 | 1 | 0.0 | 7.0 | 0.00 | 0.00 | 0.00 | 75 | 1013.4 |
| 20260506100021 | 62 | 1 | 1.0 | 4.0 | 0.00 | 0.00 | 0.00 | 75 | 1013.6 |
| 20260506094523 | 62 | 1 | 0.0 | 5.0 | 0.00 | 0.00 | 0.00 | 75 | 1013.3 |
| 20260506093027 | 62 | 1 | 0.0 | 4.0 | 0.00 | 0.00 | 0.00 | 74 | 1013.3 |
| 20260506091519 | 62 | 1 | 0.0 | 3.0 | 0.00 | 0.00 | 0.00 | 74 | 1013.2 |
| 20260506090016 | 62 | 1 | 0.0 | 6.0 | 0.00 | 0.00 | 0.00 | 73 | 1013.2 |
| 20260506084516 | 62 | 1 | 2.0 | 5.0 | 0.00 | 0.00 | 0.00 | 73 | 1013.4 |
| 20260506083017 | 62 | 1 | 0.0 | 3.0 | 0.00 | 0.00 | 0.00 | 72 | 1013.5 |
| 20260506081515 | 63 | 1 | 0.0 | 3.0 | 0.00 | 0.00 | 0.00 | 70 | 1013.5 |
| 20260506073009 | 63 | 1 | 2.0 | 6.0 | 0.00 | 0.00 | 0.00 | 67 | 1013.9 |
| 20260506071506 | 63 | 1 | 2.0 | 11.0 | 0.00 | 0.00 | 0.00 | 65 | 1014.2 |
| 20260506061601 | 63 | 1 | 3.0 | 8.0 | 0.00 | 0.00 | 0.00 | 61 | 1014.4 |
| 20260506044557 | 63 | 1 | 0.0 | 6.0 | 0.00 | 0.00 | 0.00 | 61 | 1014.7 |
| 20260506043056 | 63 | 1 | 0.0 | 5.0 | 0.00 | 0.00 | 0.00 | 62 | 1015.3 |
| 20260506041551 | 63 | 1 | 4.0 | 9.0 | 0.00 | 0.00 | 0.00 | 62 | 1015.2 |
| 20260506040049 | 63 | 1 | 1.0 | 4.0 | 0.00 | 0.00 | 0.00 | 62 | 1015.4 |
| 20260506034609 | 63 | 1 | 1.0 | 5.0 | 0.00 | 0.00 | 0.00 | 63 | 1015.5 |